Terminal Aerodrome Forecast
Issued by NWS Portland, OR

Home | Current Version | Previous Version | Text Only | Print | Product List | Glossary On
Versions: 1 2 3 4 5 6 7 8 9 10 11 12 13 14 15 16 17 18 19 20 21 22 23 24 25 26 27 28 29 30
000
FTUS46 KPQR 241720
TAFHIO
TAF
KHIO 241720Z 2418/2518 31003KT P6SM BKN025 OVC035
     FM242000 31004KT P6SM SCT025 OVC035
     FM242100 31006KT P6SM SCT030 BKN040
     FM242300 31007KT P6SM FEW030 SCT050
     FM250400 32005KT P6SM FEW025 SCT035
     FM251100 31004KT P6SM SCT025 BKN035=

USA.gov is the U.S. government's official web portal to all federal, state and local government web resources and services.